Time;durP1;ratioP1;P1;durP2;ratioP2;P2;SDS_P1;SDS_P2;PMS_P1;PMS_P2;Temp;Humidity;BMP_temperature;BMP_pressure;BME280_temperature;BME280_humidity;BME280_pressure;Samples;Min_cycle;Max_cycle;Signal;HPM_P1;HPM_P2
2022/10/18 00:01:01;;;;;;;20.15;5.82;;;15.00;99.90;;;;;;5007047;28;20268;-61
2022/10/18 00:03:27;;;;;;;22.35;8.20;;;14.90;99.90;;;;;;5013617;28;20605;-61
2022/10/18 00:05:53;;;;;;;25.77;6.65;;;14.90;99.90;;;;;;5012432;28;20272;-60
2022/10/18 00:08:20;;;;;;;24.50;6.57;;;14.90;99.90;;;;;;5013564;28;20629;-61
2022/10/18 00:10:46;;;;;;;20.95;6.70;;;14.80;99.90;;;;;;5008267;28;20185;-60
2022/10/18 00:13:12;;;;;;;19.77;5.97;;;14.80;99.90;;;;;;5012004;28;20200;-60
2022/10/18 00:15:37;;;;;;;23.30;6.80;;;14.80;99.90;;;;;;5012067;28;20226;-60
2022/10/18 00:18:03;;;;;;;23.30;6.68;;;14.80;99.90;;;;;;5013273;28;20315;-60
2022/10/18 00:20:29;;;;;;;18.27;5.75;;;14.70;99.90;;;;;;5011245;28;20185;-60
2022/10/18 00:22:55;;;;;;;16.05;5.53;;;14.70;99.90;;;;;;5008730;28;21486;-60
2022/10/18 00:25:21;;;;;;;15.75;5.45;;;14.70;99.90;;;;;;5011693;28;20661;-61
2022/10/18 00:27:47;;;;;;;21.83;5.72;;;14.60;99.90;;;;;;5013156;28;20180;-61
2022/10/18 00:30:13;;;;;;;19.83;5.53;;;14.60;99.90;;;;;;5011834;28;20181;-61
2022/10/18 00:32:40;;;;;;;16.35;5.50;;;14.50;99.90;;;;;;5007466;28;20697;-60
2022/10/18 00:35:07;;;;;;;14.30;4.80;;;14.50;99.90;;;;;;5009297;28;20196;-61
2022/10/18 00:37:34;;;;;;;18.27;6.07;;;14.50;99.90;;;;;;4994910;28;20192;-60
2022/10/18 00:40:00;;;;;;;25.63;6.78;;;14.40;99.90;;;;;;5013310;28;20196;-60
2022/10/18 00:42:31;;;;;;;21.58;6.95;;;14.40;99.90;;;;;;5008196;28;20203;-61
2022/10/18 00:45:13;;;;;;;23.85;7.13;;;14.30;99.90;;;;;;5006583;28;20189;-61
2022/10/18 00:47:39;;;;;;;25.42;7.45;;;14.30;99.90;;;;;;5025064;28;20224;-61
2022/10/18 00:50:07;;;;;;;21.55;7.47;;;14.30;99.90;;;;;;5011788;28;20168;-61
2022/10/18 00:52:39;;;;;;;24.52;7.60;;;14.20;99.90;;;;;;5025299;28;20226;-61
2022/10/18 00:55:06;;;;;;;27.50;7.30;;;14.20;99.90;;;;;;5008455;28;20176;-61
2022/10/18 00:57:33;;;;;;;29.80;7.53;;;14.20;99.90;;;;;;5012955;28;20204;-61
2022/10/18 00:59:59;;;;;;;26.48;7.07;;;14.30;99.90;;;;;;5012903;28;20275;-62
2022/10/18 01:02:25;;;;;;;22.25;6.93;;;14.20;99.90;;;;;;5010500;28;20690;-61
2022/10/18 01:04:51;;;;;;;24.15;6.95;;;14.20;99.90;;;;;;5013526;28;20177;-63
2022/10/18 01:07:27;;;;;;;21.48;7.10;;;14.20;99.90;;;;;;5012644;28;20255;-62
2022/10/18 01:10:22;;;;;;;26.25;7.60;;;14.10;99.90;;;;;;5012695;28;20173;-61
2022/10/18 01:13:26;;;;;;;22.35;7.43;;;14.10;99.90;;;;;;5009895;28;20227;-62
2022/10/18 01:16:20;;;;;;;23.75;7.22;;;14.00;99.90;;;;;;5023838;28;20534;-62
2022/10/18 01:18:48;;;;;;;19.70;7.22;;;14.00;99.90;;;;;;5012891;28;20358;-62
2022/10/18 01:21:31;;;;;;;23.67;8.48;;;13.90;99.90;;;;;;5011665;28;20181;-61
2022/10/18 01:24:34;;;;;;;22.33;7.80;;;13.90;99.90;;;;;;5000209;28;20180;-61
2022/10/18 01:27:09;;;;;;;42.30;12.27;;;13.90;99.90;;;;;;4999188;28;20208;-61
2022/10/18 01:30:00;;;;;;;33.83;11.55;;;13.90;99.90;;;;;;5011948;28;20531;-61
2022/10/18 01:32:31;;;;;;;30.25;10.05;;;13.80;99.90;;;;;;5008699;28;20204;-64
2022/10/18 01:35:03;;;;;;;27.23;9.70;;;13.80;99.90;;;;;;5008024;28;20185;-61
2022/10/18 01:37:31;;;;;;;23.77;8.98;;;13.70;99.90;;;;;;5011672;28;20173;-61
2022/10/18 01:39:59;;;;;;;20.27;9.13;;;13.70;99.90;;;;;;5011542;28;20200;-61
2022/10/18 01:42:25;;;;;;;30.60;8.50;;;13.70;99.90;;;;;;5010883;28;20242;-62
2022/10/18 01:44:52;;;;;;;26.85;7.82;;;13.70;99.90;;;;;;5007936;28;20298;-60
2022/10/18 01:47:19;;;;;;;24.10;8.77;;;13.60;99.90;;;;;;5012247;28;20263;-59
2022/10/18 01:49:45;;;;;;;24.90;8.38;;;13.60;99.90;;;;;;5016331;28;20259;-60
2022/10/18 01:52:15;;;;;;;26.83;8.13;;;13.60;99.90;;;;;;5015046;28;20204;-63
2022/10/18 01:54:44;;;;;;;30.35;7.80;;;13.50;99.90;;;;;;5010360;28;20192;-61
2022/10/18 01:57:26;;;;;;;38.28;8.68;;;13.50;99.90;;;;;;5015284;28;20177;-61
2022/10/18 01:59:52;;;;;;;20.73;8.00;;;13.50;99.90;;;;;;4996617;28;20166;-61
2022/10/18 02:02:38;;;;;;;22.40;7.57;;;13.50;99.90;;;;;;5015029;28;20188;-60
2022/10/18 02:05:19;;;;;;;24.92;8.27;;;13.50;99.90;;;;;;5009393;28;20648;-60
2022/10/18 02:08:03;;;;;;;21.60;7.60;;;13.40;99.90;;;;;;5015903;28;20169;-60
2022/10/18 02:10:40;;;;;;;27.20;7.25;;;13.40;99.90;;;;;;5014553;28;20169;-60
2022/10/18 02:13:07;;;;;;;26.60;5.75;;;13.40;99.90;;;;;;5015381;28;20254;-61
2022/10/18 02:15:37;;;;;;;21.60;5.10;;;13.40;99.90;;;;;;5009895;28;20741;-61
2022/10/18 02:18:09;;;;;;;84.57;5.68;;;13.30;99.90;;;;;;5014381;28;20188;-60
2022/10/18 02:20:37;;;;;;;71.13;5.70;;;13.30;99.90;;;;;;5014742;28;20173;-60
2022/10/18 02:23:06;;;;;;;40.20;5.97;;;13.30;99.90;;;;;;5010303;28;20181;-60
2022/10/18 02:25:33;;;;;;;43.67;5.88;;;13.20;99.90;;;;;;5005040;28;20709;-60
2022/10/18 02:28:00;;;;;;;18.90;5.90;;;13.20;99.90;;;;;;5014136;28;20613;-60
2022/10/18 02:30:58;;;;;;;18.48;5.93;;;13.20;99.90;;;;;;5015001;28;20192;-60
2022/10/18 02:33:33;;;;;;;24.15;5.53;;;13.10;99.90;;;;;;4995058;28;20228;-60
2022/10/18 02:36:05;;;;;;;15.73;6.07;;;13.10;99.90;;;;;;5011143;28;20189;-62
2022/10/18 02:38:31;;;;;;;17.33;6.03;;;13.10;99.90;;;;;;5023128;28;20180;-61
2022/10/18 02:40:58;;;;;;;16.75;6.00;;;13.00;99.90;;;;;;5011331;28;20187;-60
2022/10/18 02:43:24;;;;;;;26.02;6.18;;;13.10;99.90;;;;;;4997045;28;20195;-62
2022/10/18 02:45:50;;;;;;;16.73;5.70;;;13.00;99.90;;;;;;5013011;28;20185;-60
2022/10/18 02:48:15;;;;;;;31.80;7.65;;;12.90;99.90;;;;;;5011351;28;20592;-61
2022/10/18 02:50:41;;;;;;;31.90;9.25;;;12.90;99.90;;;;;;5015192;28;20184;-61
2022/10/18 02:53:07;;;;;;;30.73;9.02;;;12.90;99.90;;;;;;5013841;28;20212;-61
2022/10/18 02:55:33;;;;;;;33.58;8.60;;;12.90;99.90;;;;;;5012851;28;20204;-61
2022/10/18 02:57:58;;;;;;;34.92;8.18;;;12.80;99.90;;;;;;5010750;28;20275;-62
2022/10/18 03:00:24;;;;;;;22.95;8.30;;;12.80;99.90;;;;;;5013124;28;20556;-61
2022/10/18 03:02:51;;;;;;;23.80;8.48;;;12.90;99.90;;;;;;5013132;28;20287;-61
2022/10/18 03:05:17;;;;;;;34.45;8.95;;;12.90;99.90;;;;;;5015435;28;20176;-61
2022/10/18 03:07:43;;;;;;;32.65;9.88;;;12.80;99.90;;;;;;5008811;28;20180;-61
2022/10/18 03:10:08;;;;;;;28.02;9.13;;;12.80;99.90;;;;;;5012303;28;20188;-60
2022/10/18 03:12:34;;;;;;;22.05;8.32;;;12.80;99.90;;;;;;5014001;28;20311;-60
2022/10/18 03:15:00;;;;;;;19.33;7.60;;;12.70;99.90;;;;;;5012945;28;20203;-60
2022/10/18 03:17:26;;;;;;;20.77;7.40;;;12.70;99.90;;;;;;5011914;28;20307;-60
2022/10/18 03:19:51;;;;;;;17.10;7.22;;;12.70;99.90;;;;;;5010356;28;20192;-61
2022/10/18 03:22:17;;;;;;;20.52;8.68;;;12.60;99.90;;;;;;5014006;28;20227;-62
2022/10/18 03:24:44;;;;;;;22.92;7.95;;;12.60;99.90;;;;;;5016190;28;20196;-60
2022/10/18 03:27:10;;;;;;;29.77;8.40;;;12.60;99.90;;;;;;5013210;28;20268;-61
2022/10/18 03:29:35;;;;;;;22.75;8.02;;;12.60;99.90;;;;;;5008896;28;20267;-60
2022/10/18 03:32:01;;;;;;;17.98;7.10;;;12.50;99.90;;;;;;4996260;28;20299;-61
2022/10/18 03:34:27;;;;;;;19.17;7.43;;;12.50;99.90;;;;;;5013812;28;20212;-61
2022/10/18 03:36:53;;;;;;;20.15;7.35;;;12.40;99.90;;;;;;5012784;28;20707;-60
2022/10/18 03:39:19;;;;;;;22.45;7.18;;;12.40;99.90;;;;;;5008479;28;20185;-61
2022/10/18 03:41:45;;;;;;;15.30;5.85;;;12.50;99.90;;;;;;5015380;28;20279;-60
2022/10/18 03:44:10;;;;;;;19.25;7.13;;;12.40;99.90;;;;;;5014322;28;20181;-60
2022/10/18 03:46:36;;;;;;;23.77;7.45;;;12.50;99.90;;;;;;5012293;28;20199;-60
2022/10/18 03:49:02;;;;;;;21.65;8.30;;;12.40;99.90;;;;;;5011835;28;20220;-60
2022/10/18 03:51:28;;;;;;;13.90;6.65;;;12.30;99.90;;;;;;5016595;28;20664;-61
2022/10/18 03:53:54;;;;;;;15.85;7.15;;;12.30;99.90;;;;;;5013503;28;20227;-61
2022/10/18 03:56:19;;;;;;;20.88;7.38;;;12.30;99.90;;;;;;5013474;28;20597;-60
2022/10/18 03:58:45;;;;;;;22.10;7.38;;;12.20;99.90;;;;;;5011295;28;20181;-61
2022/10/18 04:01:11;;;;;;;14.15;6.25;;;12.20;99.90;;;;;;5012937;28;20208;-60
2022/10/18 04:03:37;;;;;;;15.60;6.72;;;12.20;99.90;;;;;;5021872;28;20656;-60
2022/10/18 04:06:02;;;;;;;18.05;7.88;;;12.20;99.90;;;;;;5012048;28;20279;-60
2022/10/18 04:08:29;;;;;;;17.33;7.70;;;12.20;99.90;;;;;;5013851;28;20185;-61
2022/10/18 04:10:55;;;;;;;19.20;8.75;;;12.10;99.90;;;;;;5008077;28;20422;-62
2022/10/18 04:13:20;;;;;;;17.50;7.90;;;12.20;99.90;;;;;;5006109;28;20666;-61
2022/10/18 04:15:46;;;;;;;19.23;7.82;;;12.10;99.90;;;;;;5012817;28;20247;-61
2022/10/18 04:18:12;;;;;;;12.77;6.68;;;12.00;99.90;;;;;;5016356;28;20279;-60
2022/10/18 04:20:37;;;;;;;17.85;7.22;;;12.00;99.90;;;;;;5010908;28;20184;-60
2022/10/18 04:23:03;;;;;;;13.77;7.90;;;12.00;99.90;;;;;;5023391;28;20209;-60
2022/10/18 04:25:29;;;;;;;14.98;6.90;;;11.90;99.90;;;;;;5012990;28;20263;-60
2022/10/18 04:27:55;;;;;;;16.92;7.00;;;11.90;99.90;;;;;;5011888;28;20551;-60
2022/10/18 04:30:20;;;;;;;14.65;7.35;;;11.90;99.90;;;;;;5013346;28;20211;-60
2022/10/18 04:32:46;;;;;;;20.33;7.70;;;11.80;99.90;;;;;;4993910;28;20232;-62
2022/10/18 04:35:12;;;;;;;14.40;7.20;;;11.80;99.90;;;;;;5009877;28;20577;-63
2022/10/18 04:37:38;;;;;;;17.20;7.88;;;11.80;99.90;;;;;;5016408;28;20188;-60
2022/10/18 04:40:04;;;;;;;18.75;7.65;;;11.80;99.90;;;;;;5012858;28;20673;-60
2022/10/18 04:42:30;;;;;;;15.05;7.00;;;11.80;99.90;;;;;;5013506;28;20196;-61
2022/10/18 04:44:55;;;;;;;11.30;6.72;;;11.70;99.90;;;;;;5007487;28;20191;-60
2022/10/18 04:47:21;;;;;;;12.88;7.10;;;11.70;99.90;;;;;;5009041;28;20199;-60
2022/10/18 04:49:47;;;;;;;11.02;6.80;;;11.70;99.90;;;;;;5011301;28;20185;-60
2022/10/18 04:52:13;;;;;;;13.57;6.88;;;11.70;99.90;;;;;;5027754;28;20220;-62
2022/10/18 04:54:38;;;;;;;15.07;7.05;;;11.70;99.90;;;;;;5023742;28;20282;-62
2022/10/18 04:57:04;;;;;;;13.65;6.63;;;11.60;99.90;;;;;;5010727;28;20279;-62
2022/10/18 04:59:30;;;;;;;13.00;6.28;;;11.60;99.90;;;;;;5009423;28;20188;-59
2022/10/18 05:01:55;;;;;;;11.82;6.45;;;11.60;99.90;;;;;;4997350;28;20919;-62
2022/10/18 05:04:21;;;;;;;9.20;6.80;;;11.60;99.90;;;;;;5006117;28;20256;-60
2022/10/18 05:06:47;;;;;;;9.70;6.18;;;11.60;99.90;;;;;;5012421;28;20307;-60
2022/10/18 05:09:12;;;;;;;11.45;7.13;;;11.60;99.90;;;;;;5012368;28;20268;-60
2022/10/18 05:11:38;;;;;;;10.32;6.22;;;11.60;99.90;;;;;;5012400;28;20192;-61
2022/10/18 05:14:04;;;;;;;11.82;6.53;;;11.60;99.90;;;;;;5011388;28;20208;-60
2022/10/18 05:16:31;;;;;;;10.10;6.60;;;11.50;99.90;;;;;;5008547;28;20181;-60
2022/10/18 05:18:57;;;;;;;20.80;10.48;;;11.40;99.90;;;;;;5012423;28;20187;-61
2022/10/18 05:21:22;;;;;;;12.93;7.63;;;11.50;99.90;;;;;;5010429;28;20271;-59
2022/10/18 05:23:48;;;;;;;12.98;7.63;;;11.50;99.90;;;;;;5015305;28;20184;-59
2022/10/18 05:26:14;;;;;;;14.15;7.07;;;11.50;99.90;;;;;;5029118;28;20196;-59
2022/10/18 05:28:39;;;;;;;11.77;6.90;;;11.50;99.90;;;;;;5002619;28;20260;-61
2022/10/18 05:31:07;;;;;;;14.27;6.53;;;11.40;99.90;;;;;;4993984;28;21829;-61
2022/10/18 05:33:33;;;;;;;13.95;6.75;;;11.40;99.90;;;;;;5012379;28;20211;-65
2022/10/18 05:35:59;;;;;;;16.98;8.20;;;11.40;99.90;;;;;;5015334;28;20267;-60
2022/10/18 05:38:26;;;;;;;12.57;6.70;;;11.40;99.90;;;;;;5009171;28;20272;-58
2022/10/18 05:40:52;;;;;;;12.88;6.75;;;11.40;99.90;;;;;;5014344;28;20195;-60
2022/10/18 05:43:17;;;;;;;11.05;6.00;;;11.40;99.90;;;;;;5011724;28;20184;-59
2022/10/18 05:45:50;;;;;;;11.93;6.75;;;11.40;99.90;;;;;;5020162;28;20565;-60
2022/10/18 05:48:16;;;;;;;12.57;6.50;;;11.30;99.90;;;;;;4992116;28;20224;-61
2022/10/18 05:50:43;;;;;;;11.07;6.85;;;11.30;99.90;;;;;;5013344;28;20281;-58
2022/10/18 05:53:09;;;;;;;14.18;7.45;;;11.30;99.90;;;;;;5014135;28;20240;-60
2022/10/18 05:55:34;;;;;;;11.35;7.72;;;11.30;99.90;;;;;;5006470;28;21152;-59
2022/10/18 05:58:01;;;;;;;14.57;8.07;;;11.20;99.90;;;;;;5015313;28;20203;-60
2022/10/18 06:00:27;;;;;;;12.55;7.20;;;11.20;99.90;;;;;;5016484;28;20605;-61
2022/10/18 06:02:53;;;;;;;14.05;7.65;;;11.20;99.90;;;;;;5014392;28;20709;-64
2022/10/18 06:05:19;;;;;;;13.93;7.38;;;11.20;99.90;;;;;;5003025;28;20280;-61
2022/10/18 06:07:45;;;;;;;18.10;8.32;;;11.20;99.90;;;;;;5009611;28;20208;-59
2022/10/18 06:10:11;;;;;;;18.27;7.53;;;11.20;99.90;;;;;;5012853;28;20235;-59
2022/10/18 06:12:36;;;;;;;14.13;7.78;;;11.20;99.90;;;;;;5003098;28;20212;-59
2022/10/18 06:15:02;;;;;;;19.13;7.65;;;11.20;99.90;;;;;;5000659;28;20650;-60
2022/10/18 06:17:28;;;;;;;16.30;7.20;;;11.10;99.90;;;;;;5008263;28;20208;-59
2022/10/18 06:19:54;;;;;;;22.27;8.00;;;11.20;99.90;;;;;;5006288;28;20189;-59
2022/10/18 06:22:20;;;;;;;17.73;7.85;;;11.10;99.90;;;;;;5004702;28;20184;-62
2022/10/18 06:24:45;;;;;;;20.08;7.78;;;11.10;99.90;;;;;;5011057;28;20672;-59
2022/10/18 06:27:11;;;;;;;19.33;7.13;;;11.10;99.90;;;;;;5009513;28;20208;-59
2022/10/18 06:29:38;;;;;;;13.98;6.80;;;11.10;99.90;;;;;;5015465;28;20681;-59
2022/10/18 06:32:06;;;;;;;14.85;7.60;;;11.10;99.90;;;;;;5009169;28;20217;-64
2022/10/18 06:34:32;;;;;;;25.45;8.18;;;11.10;99.90;;;;;;5003158;28;20191;-59
2022/10/18 06:36:58;;;;;;;20.23;8.05;;;11.10;99.90;;;;;;5013991;28;20195;-59
2022/10/18 06:39:24;;;;;;;19.38;8.20;;;11.10;99.90;;;;;;5015989;28;20189;-60
2022/10/18 06:41:50;;;;;;;23.30;8.95;;;11.10;99.90;;;;;;5013894;28;20188;-59
2022/10/18 06:44:20;;;;;;;14.93;7.68;;;11.10;99.90;;;;;;4998787;28;20188;-59
2022/10/18 06:46:47;;;;;;;25.63;10.00;;;11.10;99.90;;;;;;5003938;28;20183;-56
2022/10/18 06:49:13;;;;;;;27.85;10.75;;;11.10;99.90;;;;;;5000069;28;20986;-56
2022/10/18 06:51:40;;;;;;;22.85;9.43;;;11.10;99.90;;;;;;5006662;28;20262;-54
2022/10/18 06:54:06;;;;;;;16.20;7.97;;;11.10;99.90;;;;;;5013699;28;20180;-56
2022/10/18 06:56:33;;;;;;;19.25;7.65;;;11.10;99.90;;;;;;5012076;28;20188;-52
2022/10/18 06:58:58;;;;;;;10.57;6.07;;;11.10;99.90;;;;;;5013930;28;20176;-52
2022/10/18 07:01:24;;;;;;;11.48;6.50;;;11.10;99.90;;;;;;4999773;28;20635;-51
2022/10/18 07:03:52;;;;;;;19.52;6.68;;;11.10;99.90;;;;;;5009642;28;20563;-51
2022/10/18 07:06:19;;;;;;;17.10;6.40;;;11.10;99.90;;;;;;5011973;28;20544;-54
2022/10/18 07:08:46;;;;;;;16.30;6.82;;;11.20;99.90;;;;;;5014827;28;20176;-56
2022/10/18 07:11:24;;;;;;;16.33;6.13;;;11.20;99.90;;;;;;5019502;28;20272;-57
2022/10/18 07:13:50;;;;;;;18.08;8.82;;;11.20;99.90;;;;;;4997469;28;20196;-51
2022/10/18 07:16:17;;;;;;;17.65;9.63;;;11.20;99.90;;;;;;4999962;28;20216;-53
2022/10/18 07:18:46;;;;;;;16.45;10.65;;;11.20;99.90;;;;;;5014350;28;20181;-53
2022/10/18 07:21:13;;;;;;;18.45;9.35;;;11.20;99.90;;;;;;5012348;28;20165;-52
2022/10/18 07:23:41;;;;;;;18.58;7.57;;;11.30;99.90;;;;;;5001873;28;20568;-52
2022/10/18 07:26:19;;;;;;;16.30;8.25;;;11.30;99.90;;;;;;4995145;28;20664;-59
2022/10/18 07:28:48;;;;;;;21.92;8.55;;;11.30;99.90;;;;;;5022495;28;20191;-58
2022/10/18 07:31:15;;;;;;;29.52;9.10;;;11.40;99.90;;;;;;5009029;28;20221;-56
2022/10/18 07:33:41;;;;;;;20.85;8.48;;;11.40;99.90;;;;;;5013501;28;20300;-59
2022/10/18 07:36:08;;;;;;;16.17;8.55;;;11.50;99.90;;;;;;5009858;28;20197;-56
2022/10/18 07:38:35;;;;;;;16.80;7.68;;;11.60;99.90;;;;;;5013645;28;20193;-56
2022/10/18 07:41:02;;;;;;;15.93;8.48;;;11.50;99.90;;;;;;5014234;28;20231;-61
2022/10/18 07:43:29;;;;;;;24.55;9.00;;;11.60;99.90;;;;;;5012372;28;20196;-57
2022/10/18 07:45:58;;;;;;;19.92;9.13;;;11.60;99.90;;;;;;5000981;28;20519;-60
2022/10/18 07:48:24;;;;;;;21.17;9.18;;;11.70;99.90;;;;;;5011723;28;20255;-57
2022/10/18 07:50:50;;;;;;;26.75;9.98;;;11.80;99.90;;;;;;5012066;28;20650;-57
2022/10/18 07:53:16;;;;;;;35.78;12.95;;;11.80;99.90;;;;;;5011648;28;20227;-57
2022/10/18 07:55:43;;;;;;;25.35;10.30;;;11.90;99.90;;;;;;5005410;28;20652;-57
2022/10/18 07:58:10;;;;;;;21.42;8.93;;;12.00;99.90;;;;;;5006126;28;20185;-56
2022/10/18 08:00:35;;;;;;;26.40;8.75;;;12.00;99.90;;;;;;5013699;28;20684;-56
2022/10/18 08:03:01;;;;;;;26.05;9.98;;;12.10;99.90;;;;;;5011300;28;20196;-55
2022/10/18 08:05:27;;;;;;;21.85;9.52;;;12.20;99.90;;;;;;5008283;28;20180;-59
2022/10/18 08:07:54;;;;;;;22.35;9.07;;;12.30;99.90;;;;;;5015106;28;20223;-55
2022/10/18 08:10:21;;;;;;;25.55;9.05;;;12.30;99.90;;;;;;5013522;28;20208;-55
2022/10/18 08:12:46;;;;;;;30.08;10.40;;;12.40;99.90;;;;;;5003071;28;20658;-61
2022/10/18 08:15:12;;;;;;;30.45;7.47;;;12.50;99.90;;;;;;5009874;28;20185;-56
2022/10/18 08:17:38;;;;;;;24.65;7.20;;;12.60;99.90;;;;;;5010904;28;20279;-56
2022/10/18 08:20:05;;;;;;;20.05;5.78;;;12.80;99.90;;;;;;5013852;28;20663;-57
2022/10/18 08:22:30;;;;;;;22.42;5.40;;;12.80;99.90;;;;;;5008806;28;20176;-57
2022/10/18 08:24:56;;;;;;;24.42;6.30;;;13.00;99.90;;;;;;5003504;28;20570;-57
2022/10/18 08:27:24;;;;;;;16.40;4.88;;;13.10;99.90;;;;;;5010607;28;20192;-57
2022/10/18 08:29:50;;;;;;;17.17;4.57;;;13.20;99.90;;;;;;5012166;28;20283;-57
2022/10/18 08:32:16;;;;;;;18.02;3.92;;;13.30;99.90;;;;;;5011528;28;20355;-58
2022/10/18 08:34:42;;;;;;;20.25;5.20;;;13.40;99.90;;;;;;5019681;28;20192;-60
2022/10/18 08:37:08;;;;;;;20.75;4.43;;;13.50;99.90;;;;;;4999565;28;20575;-57
2022/10/18 08:39:33;;;;;;;16.85;4.50;;;13.60;99.90;;;;;;5005337;28;20192;-56
2022/10/18 08:42:20;;;;;;;22.83;4.38;;;13.70;99.90;;;;;;5012342;28;20276;-57
2022/10/18 08:44:48;;;;;;;19.17;4.50;;;13.80;99.90;;;;;;5009972;28;20196;-59
2022/10/18 08:47:18;;;;;;;14.52;4.47;;;13.90;99.90;;;;;;5013509;28;20260;-59
2022/10/18 08:49:55;;;;;;;17.00;3.40;;;14.00;99.90;;;;;;5010136;28;20577;-59
2022/10/18 08:52:46;;;;;;;23.55;3.88;;;14.20;99.90;;;;;;5006239;28;20287;-57
2022/10/18 08:55:41;;;;;;;13.25;4.10;;;14.20;99.90;;;;;;5009373;28;20196;-57
2022/10/18 08:58:23;;;;;;;17.98;3.28;;;14.40;99.90;;;;;;5013511;28;20291;-58
2022/10/18 09:00:55;;;;;;;14.13;2.33;;;14.50;99.90;;;;;;4998192;28;20181;-57
2022/10/18 09:03:47;;;;;;;22.60;3.13;;;14.60;99.90;;;;;;4999490;28;20274;-57
2022/10/18 09:06:31;;;;;;;17.40;2.28;;;14.70;99.90;;;;;;5009298;28;20197;-57
2022/10/18 09:09:12;;;;;;;16.50;2.08;;;14.80;99.90;;;;;;5014518;28;20188;-57
2022/10/18 09:12:09;;;;;;;14.10;2.58;;;14.90;99.90;;;;;;5017444;28;20169;-56
2022/10/18 09:14:55;;;;;;;11.48;1.88;;;15.00;99.90;;;;;;4998055;28;20209;-58
2022/10/18 09:17:38;;;;;;;13.80;2.50;;;15.10;99.90;;;;;;5015984;28;20682;-58
2022/10/18 09:20:24;;;;;;;12.57;2.08;;;15.20;99.90;;;;;;5015086;28;20188;-58
2022/10/18 09:23:02;;;;;;;19.88;2.85;;;15.20;99.90;;;;;;5015823;28;20185;-57
2022/10/18 09:25:36;;;;;;;18.25;3.28;;;15.40;99.90;;;;;;5002149;28;20267;-59
2022/10/18 09:28:14;;;;;;;13.98;1.90;;;15.50;99.90;;;;;;5014945;28;20188;-59
2022/10/18 09:31:03;;;;;;;16.60;2.33;;;15.60;99.90;;;;;;4996474;28;20228;-57
2022/10/18 09:33:51;;;;;;;19.15;2.45;;;15.60;99.90;;;;;;5000047;28;20678;-57
2022/10/18 09:36:23;;;;;;;11.77;1.98;;;15.60;99.90;;;;;;4997605;28;20295;-57
2022/10/18 09:38:58;;;;;;;14.50;2.10;;;15.70;99.90;;;;;;5012862;28;20701;-56
2022/10/18 09:41:51;;;;;;;17.73;2.45;;;15.70;99.90;;;;;;5015094;28;20210;-58
2022/10/18 09:44:26;;;;;;;15.10;2.08;;;15.80;99.90;;;;;;5030112;28;20272;-58
2022/10/18 09:47:04;;;;;;;9.77;2.05;;;15.90;99.90;;;;;;5002461;28;20188;-56
2022/10/18 09:49:43;;;;;;;19.23;1.90;;;15.90;99.90;;;;;;5013476;28;20224;-57
2022/10/18 09:52:30;;;;;;;10.70;1.98;;;16.00;99.90;;;;;;5015724;28;20196;-58
2022/10/18 09:55:01;;;;;;;10.35;1.92;;;16.10;99.90;;;;;;5014250;28;20184;-59
2022/10/18 09:57:55;;;;;;;12.73;2.03;;;16.10;99.90;;;;;;5017157;28;20188;-58
2022/10/18 10:00:28;;;;;;;14.45;1.92;;;16.20;99.90;;;;;;5008791;28;20635;-59
2022/10/18 10:02:54;;;;;;;17.08;2.25;;;16.20;99.90;;;;;;5006197;28;20584;-58
2022/10/18 10:05:20;;;;;;;9.48;2.03;;;16.30;99.90;;;;;;5010492;28;20606;-59
2022/10/18 10:07:47;;;;;;;13.50;2.15;;;16.40;99.90;;;;;;5035574;28;20180;-58
2022/10/18 10:10:16;;;;;;;10.73;2.17;;;16.40;99.90;;;;;;5013425;28;20272;-58
2022/10/18 10:12:42;;;;;;;11.02;1.83;;;16.40;99.90;;;;;;5016452;28;20211;-58
2022/10/18 10:15:24;;;;;;;20.60;2.95;;;16.50;99.90;;;;;;5013917;28;20185;-57
2022/10/18 10:18:19;;;;;;;11.73;2.38;;;16.50;99.90;;;;;;5015347;28;20183;-60
2022/10/18 10:20:48;;;;;;;13.68;2.40;;;16.60;99.90;;;;;;4996414;28;20196;-61
2022/10/18 10:23:35;;;;;;;15.02;2.30;;;16.70;99.90;;;;;;5002722;28;20188;-59
2022/10/18 10:26:22;;;;;;;10.90;1.73;;;16.70;99.90;;;;;;5012761;28;20189;-55
2022/10/18 10:28:48;;;;;;;11.30;1.70;;;16.70;99.90;;;;;;5011377;28;20196;-58
2022/10/18 10:31:34;;;;;;;12.27;1.70;;;16.80;99.90;;;;;;5005620;28;20176;-59
2022/10/18 10:34:03;;;;;;;14.27;1.90;;;16.80;99.90;;;;;;5001118;28;20204;-59
2022/10/18 10:36:30;;;;;;;18.88;2.20;;;16.90;99.90;;;;;;5015051;28;20705;-57
2022/10/18 10:39:11;;;;;;;7.57;1.60;;;17.00;99.90;;;;;;5011929;28;20181;-60
2022/10/18 10:41:39;;;;;;;11.77;1.92;;;17.00;99.90;;;;;;5011068;28;20241;-58
2022/10/18 10:44:17;;;;;;;20.40;2.35;;;17.10;99.90;;;;;;5011367;28;20231;-59
2022/10/18 10:46:44;;;;;;;6.53;1.88;;;17.10;99.90;;;;;;5014098;28;20247;-58
2022/10/18 10:49:39;;;;;;;9.10;1.83;;;17.20;99.90;;;;;;5013284;28;20367;-58
2022/10/18 10:52:05;;;;;;;16.73;1.73;;;17.30;99.90;;;;;;5005158;28;20211;-59
2022/10/18 10:54:35;;;;;;;7.85;1.48;;;17.30;99.90;;;;;;5004700;28;20197;-59
2022/10/18 10:57:11;;;;;;;15.98;2.05;;;17.60;99.90;;;;;;4995565;28;20176;-58
2022/10/18 10:59:49;;;;;;;11.95;2.10;;;17.70;99.90;;;;;;5019704;28;20199;-58
2022/10/18 11:02:18;;;;;;;12.25;1.75;;;17.80;99.90;;;;;;4996600;28;20188;-60
2022/10/18 11:04:46;;;;;;;10.27;1.92;;;17.90;99.90;;;;;;5006529;28;20221;-58
2022/10/18 11:07:30;;;;;;;16.00;2.80;;;18.00;99.90;;;;;;5014584;28;20243;-58
2022/10/18 11:10:11;;;;;;;9.70;1.83;;;18.10;99.90;;;;;;5012903;28;20195;-59
2022/10/18 11:13:21;;;;;;;9.13;1.58;;;18.20;99.90;;;;;;5014415;28;20358;-57
2022/10/18 11:15:51;;;;;;;10.55;1.80;;;18.30;99.90;;;;;;5003252;28;20193;-58
2022/10/18 11:18:33;;;;;;;12.65;2.70;;;18.40;99.90;;;;;;5010887;28;20204;-58
2022/10/18 11:21:10;;;;;;;12.60;2.10;;;18.50;99.90;;;;;;5012972;28;20191;-60
2022/10/18 11:23:38;;;;;;;12.27;2.22;;;18.50;99.90;;;;;;5011203;28;20182;-61
2022/10/18 11:26:10;;;;;;;9.63;1.88;;;18.60;99.90;;;;;;5011973;28;20173;-60
2022/10/18 11:28:35;;;;;;;7.38;1.50;;;18.60;99.90;;;;;;5012892;28;20395;-56
2022/10/18 11:31:01;;;;;;;10.65;1.92;;;18.70;99.90;;;;;;5011753;28;20717;-58
2022/10/18 11:33:36;;;;;;;11.82;1.75;;;18.70;99.90;;;;;;5012331;28;20212;-58
2022/10/18 11:36:28;;;;;;;7.00;1.35;;;18.80;99.90;;;;;;4999961;28;20299;-61
2022/10/18 11:39:01;;;;;;;13.50;1.85;;;18.90;99.90;;;;;;5006713;28;20595;-58
2022/10/18 11:41:48;;;;;;;10.93;3.60;;;19.10;99.90;;;;;;4994851;28;20280;-60
2022/10/18 11:44:26;;;;;;;7.32;1.45;;;19.20;99.90;;;;;;5012169;28;20215;-59
2022/10/18 11:46:59;;;;;;;9.52;1.60;;;19.20;99.90;;;;;;5011223;28;20911;-60
2022/10/18 11:49:34;;;;;;;16.33;1.75;;;19.30;99.90;;;;;;5019870;28;20221;-59
2022/10/18 11:52:08;;;;;;;8.18;1.77;;;19.30;99.90;;;;;;5013844;28;20187;-57
2022/10/18 11:55:19;;;;;;;10.35;2.13;;;19.40;99.90;;;;;;5027914;28;20700;-58
2022/10/18 11:58:07;;;;;;;9.18;1.85;;;19.50;99.90;;;;;;5002001;28;20176;-57
2022/10/18 12:00:43;;;;;;;7.40;1.40;;;19.60;99.90;;;;;;5012327;28;20208;-57
2022/10/18 12:03:36;;;;;;;9.70;1.67;;;19.60;99.90;;;;;;5016600;28;20196;-59
2022/10/18 12:06:18;;;;;;;13.90;2.03;;;19.70;99.90;;;;;;5005465;28;20228;-60
2022/10/18 12:08:58;;;;;;;10.75;1.85;;;19.80;99.90;;;;;;4999201;28;20264;-58
2022/10/18 12:11:37;;;;;;;12.95;2.30;;;19.80;99.90;;;;;;5009838;28;20605;-58
2022/10/18 12:14:20;;;;;;;9.23;1.60;;;19.80;99.90;;;;;;5007842;28;20215;-60
2022/10/18 12:16:46;;;;;;;8.18;1.95;;;19.90;99.90;;;;;;5007711;28;20208;-57
2022/10/18 12:19:39;;;;;;;8.57;1.50;;;19.90;99.90;;;;;;5006981;28;20177;-59
2022/10/18 12:22:34;;;;;;;8.77;1.40;;;20.00;99.40;;;;;;4993332;28;20217;-59
2022/10/18 12:25:00;;;;;;;9.07;1.63;;;20.10;99.70;;;;;;4996187;28;20188;-60
2022/10/18 12:27:55;;;;;;;10.25;1.45;;;20.30;99.20;;;;;;5008966;28;20579;-59
2022/10/18 12:30:48;;;;;;;6.85;1.42;;;20.40;98.60;;;;;;4995941;28;20208;-58
2022/10/18 12:33:20;;;;;;;6.82;1.85;;;20.50;98.60;;;;;;5001555;28;20243;-59
2022/10/18 12:36:21;;;;;;;7.25;1.58;;;20.70;98.40;;;;;;5012305;28;20184;-61
2022/10/18 12:39:13;;;;;;;8.45;2.05;;;20.90;95.90;;;;;;5005384;28;20557;-57
2022/10/18 12:41:39;;;;;;;8.05;1.33;;;21.10;95.60;;;;;;4996400;28;20196;-57
2022/10/18 12:44:17;;;;;;;10.20;1.45;;;21.20;96.20;;;;;;5004094;28;20192;-58
2022/10/18 12:46:47;;;;;;;9.82;1.60;;;21.50;96.00;;;;;;5013326;28;20676;-58
2022/10/18 12:49:20;;;;;;;6.65;1.35;;;21.80;96.30;;;;;;5006519;28;20232;-60
2022/10/18 12:51:55;;;;;;;5.63;1.27;;;22.10;94.90;;;;;;4996261;28;20191;-58
2022/10/18 12:54:26;;;;;;;7.53;1.80;;;22.40;94.50;;;;;;5011319;28;20196;-58
2022/10/18 12:56:52;;;;;;;8.93;1.45;;;22.70;93.90;;;;;;5011188;28;20622;-59
2022/10/18 12:59:18;;;;;;;6.70;1.65;;;23.00;94.10;;;;;;5000846;28;20176;-59